Hlavní strana
METAR-TAF:

METAR-TAF

Letiště :

Mezinárodní letiště Novosibirsk-Tolmačovo

Novosibirsk, Rusko

zeměpisná šířka: 55-01N, zeměpisná délka: 082-38E, výška: 111 m

Aktuální stav počasí

Zpráva byla vytvořena před 31 minutami, v 13:00 UTC
Severní vítr 2 kt
Teplota 24°C
Vlhkost vzduchu 61%
Tlak 1006 hPa
Viditelnost 10 km a více
Žádná oblačnost pod 1500 m, nevyskytují se cumulonimby.

METAR: UNNT 171300Z 36001MPS CAVOK 24/16 Q1006 R25/090070 R16/090070 NOSIG RMK QFE745/0993

Čas: 20:31 (13:31 UTC)

Předpověď počasí

Zpráva byla vytvořena před 2 hodinami a 31 minutami, v 11:00 UTC
Předpověď platná od 17 v 12 UTC do 18 v 12 UTC
Severní vítr 6 kt
Viditelnost 10 km a více
Žádná oblačnost pod 1500 m, nevyskytují se cumulonimby.
Od 18 v 0400 UTC
Západojihozápadní vítr 12 kt s nárazy do 23 kt
Viditelnost 10 km a více
Polojasno ve výšce 5100 ft, Cumulonimbus.

TAF: UNNT 171100Z 1712/1812 36003MPS CAVOK FM180400 25006G12MPS 9999 SCT051CB

Stav a předpovědi počasí z více než 4 000 letišť (zprávy METAR a TAF).

Červené a žluté tečky na mapě představují dostupné meteorologické stanice.

Když kurzor umístíte na tečku, zobrazí se název stanice.

Pak kliknutím zobrazíte stav a předpověď počasí.

Chcete-li změnit mapu, kliknutím na zelené tlačítko se znaménkem +mapu přiblížíte, kliknutím na zelené tlačítko se znaménkem – mapu oddálíte a kliknutím na zelené šipky přejdete na sousední mapy.


METAR-TAF: